sensor_id;sensor_type;location;lat;lon;timestamp;temperature;humidity
17495;DHT22;8864;51.970;4.614;2023-07-29T00:01:36;23.80;68.10
17495;DHT22;8864;51.970;4.614;2023-07-29T00:04:05;23.80;68.90
17495;DHT22;8864;51.970;4.614;2023-07-29T00:06:34;23.80;68.20
17495;DHT22;8864;51.970;4.614;2023-07-29T00:09:00;23.80;68.20
17495;DHT22;8864;51.970;4.614;2023-07-29T00:11:28;23.80;68.30
17495;DHT22;8864;51.970;4.614;2023-07-29T00:13:55;23.80;68.30
17495;DHT22;8864;51.970;4.614;2023-07-29T00:16:24;23.80;68.50
17495;DHT22;8864;51.970;4.614;2023-07-29T00:18:51;23.80;68.50
17495;DHT22;8864;51.970;4.614;2023-07-29T00:21:18;23.80;68.50
17495;DHT22;8864;51.970;4.614;2023-07-29T00:23:45;23.80;68.60
17495;DHT22;8864;51.970;4.614;2023-07-29T00:26:12;23.80;68.60
17495;DHT22;8864;51.970;4.614;2023-07-29T00:28:39;23.80;68.60
17495;DHT22;8864;51.970;4.614;2023-07-29T00:31:06;23.80;68.60
17495;DHT22;8864;51.970;4.614;2023-07-29T00:33:34;23.80;68.70
17495;DHT22;8864;51.970;4.614;2023-07-29T00:36:01;23.80;68.80
17495;DHT22;8864;51.970;4.614;2023-07-29T00:38:28;23.80;68.90
17495;DHT22;8864;51.970;4.614;2023-07-29T00:40:57;23.80;68.90
17495;DHT22;8864;51.970;4.614;2023-07-29T00:43:24;23.80;68.90
17495;DHT22;8864;51.970;4.614;2023-07-29T00:45:51;23.80;68.90
17495;DHT22;8864;51.970;4.614;2023-07-29T00:48:19;23.80;69.00
17495;DHT22;8864;51.970;4.614;2023-07-29T00:50:47;23.70;69.00
17495;DHT22;8864;51.970;4.614;2023-07-29T00:53:15;23.80;69.10
17495;DHT22;8864;51.970;4.614;2023-07-29T00:55:42;23.80;69.10
17495;DHT22;8864;51.970;4.614;2023-07-29T00:58:10;23.80;69.10
17495;DHT22;8864;51.970;4.614;2023-07-29T01:00:37;23.80;69.10
17495;DHT22;8864;51.970;4.614;2023-07-29T01:03:04;23.80;69.20
17495;DHT22;8864;51.970;4.614;2023-07-29T01:05:36;23.80;69.20
17495;DHT22;8864;51.970;4.614;2023-07-29T01:08:14;23.70;69.10
17495;DHT22;8864;51.970;4.614;2023-07-29T01:10:52;23.70;69.30
17495;DHT22;8864;51.970;4.614;2023-07-29T01:13:26;23.70;69.30
17495;DHT22;8864;51.970;4.614;2023-07-29T01:16:01;23.70;69.30
17495;DHT22;8864;51.970;4.614;2023-07-29T01:18:32;23.70;69.40
17495;DHT22;8864;51.970;4.614;2023-07-29T01:21:01;23.70;69.40
17495;DHT22;8864;51.970;4.614;2023-07-29T01:23:31;23.70;69.50
17495;DHT22;8864;51.970;4.614;2023-07-29T01:25:58;23.70;69.40
17495;DHT22;8864;51.970;4.614;2023-07-29T01:28:26;23.70;69.50
17495;DHT22;8864;51.970;4.614;2023-07-29T01:30:57;23.70;69.60
17495;DHT22;8864;51.970;4.614;2023-07-29T01:33:27;23.70;69.50
17495;DHT22;8864;51.970;4.614;2023-07-29T01:36:01;23.70;69.50
17495;DHT22;8864;51.970;4.614;2023-07-29T01:38:32;23.70;69.50
17495;DHT22;8864;51.970;4.614;2023-07-29T01:41:01;23.70;69.40
17495;DHT22;8864;51.970;4.614;2023-07-29T01:43:28;23.70;69.30
17495;DHT22;8864;51.970;4.614;2023-07-29T01:45:56;23.70;69.30
17495;DHT22;8864;51.970;4.614;2023-07-29T01:48:23;23.70;69.30
17495;DHT22;8864;51.970;4.614;2023-07-29T01:50:50;23.60;69.20
17495;DHT22;8864;51.970;4.614;2023-07-29T01:53:17;23.70;69.20
17495;DHT22;8864;51.970;4.614;2023-07-29T01:55:45;23.70;69.20
17495;DHT22;8864;51.970;4.614;2023-07-29T01:58:12;23.70;69.10
17495;DHT22;8864;51.970;4.614;2023-07-29T02:00:39;23.70;69.10
17495;DHT22;8864;51.970;4.614;2023-07-29T02:03:06;23.70;69.10
17495;DHT22;8864;51.970;4.614;2023-07-29T02:05:33;23.70;69.10
17495;DHT22;8864;51.970;4.614;2023-07-29T02:08:00;23.70;69.10
17495;DHT22;8864;51.970;4.614;2023-07-29T02:10:27;23.70;69.10
17495;DHT22;8864;51.970;4.614;2023-07-29T02:12:55;23.70;69.10
17495;DHT22;8864;51.970;4.614;2023-07-29T02:15:23;23.70;69.10
17495;DHT22;8864;51.970;4.614;2023-07-29T02:17:50;23.60;69.10
17495;DHT22;8864;51.970;4.614;2023-07-29T02:20:17;23.70;69.10
17495;DHT22;8864;51.970;4.614;2023-07-29T02:22:44;23.70;69.10
17495;DHT22;8864;51.970;4.614;2023-07-29T02:25:11;23.60;69.00
17495;DHT22;8864;51.970;4.614;2023-07-29T02:27:38;23.70;69.10
17495;DHT22;8864;51.970;4.614;2023-07-29T02:30:07;23.70;69.10
17495;DHT22;8864;51.970;4.614;2023-07-29T02:32:36;23.70;69.10
17495;DHT22;8864;51.970;4.614;2023-07-29T02:35:03;23.70;69.10
17495;DHT22;8864;51.970;4.614;2023-07-29T02:37:31;23.70;69.10
17495;DHT22;8864;51.970;4.614;2023-07-29T02:39:58;23.60;69.00
17495;DHT22;8864;51.970;4.614;2023-07-29T02:42:24;23.60;69.00
17495;DHT22;8864;51.970;4.614;2023-07-29T02:44:51;23.70;69.00
17495;DHT22;8864;51.970;4.614;2023-07-29T02:47:20;23.60;69.80
17495;DHT22;8864;51.970;4.614;2023-07-29T02:49:47;23.60;69.00
17495;DHT22;8864;51.970;4.614;2023-07-29T02:52:14;23.60;69.00
17495;DHT22;8864;51.970;4.614;2023-07-29T02:54:40;23.60;69.00
17495;DHT22;8864;51.970;4.614;2023-07-29T02:57:07;23.60;69.00
17495;DHT22;8864;51.970;4.614;2023-07-29T02:59:34;23.60;68.90
17495;DHT22;8864;51.970;4.614;2023-07-29T03:02:01;23.60;68.90
17495;DHT22;8864;51.970;4.614;2023-07-29T03:04:29;23.70;69.00
17495;DHT22;8864;51.970;4.614;2023-07-29T03:06:56;23.60;69.00
17495;DHT22;8864;51.970;4.614;2023-07-29T03:09:25;23.60;69.00
17495;DHT22;8864;51.970;4.614;2023-07-29T03:11:52;23.60;68.90
17495;DHT22;8864;51.970;4.614;2023-07-29T03:14:20;23.60;68.90
17495;DHT22;8864;51.970;4.614;2023-07-29T03:16:47;23.60;68.90
17495;DHT22;8864;51.970;4.614;2023-07-29T03:19:15;23.60;68.90
17495;DHT22;8864;51.970;4.614;2023-07-29T03:21:43;23.60;69.00
17495;DHT22;8864;51.970;4.614;2023-07-29T03:24:11;23.60;68.90
17495;DHT22;8864;51.970;4.614;2023-07-29T03:26:38;23.60;68.90
17495;DHT22;8864;51.970;4.614;2023-07-29T03:29:05;23.60;68.90
17495;DHT22;8864;51.970;4.614;2023-07-29T03:31:32;23.60;68.90
17495;DHT22;8864;51.970;4.614;2023-07-29T03:33:59;23.60;69.00
17495;DHT22;8864;51.970;4.614;2023-07-29T03:36:25;23.60;68.90
17495;DHT22;8864;51.970;4.614;2023-07-29T03:38:54;23.60;68.90
17495;DHT22;8864;51.970;4.614;2023-07-29T03:41:21;23.60;68.90
17495;DHT22;8864;51.970;4.614;2023-07-29T03:43:48;23.60;68.90
17495;DHT22;8864;51.970;4.614;2023-07-29T03:46:15;23.60;68.90
17495;DHT22;8864;51.970;4.614;2023-07-29T03:48:45;23.60;68.90
17495;DHT22;8864;51.970;4.614;2023-07-29T03:51:12;23.60;69.00
17495;DHT22;8864;51.970;4.614;2023-07-29T03:53:39;23.60;68.90
17495;DHT22;8864;51.970;4.614;2023-07-29T03:56:07;23.60;68.90
17495;DHT22;8864;51.970;4.614;2023-07-29T03:58:34;23.60;68.90
17495;DHT22;8864;51.970;4.614;2023-07-29T04:01:01;23.60;68.90
17495;DHT22;8864;51.970;4.614;2023-07-29T04:03:30;23.60;68.90
17495;DHT22;8864;51.970;4.614;2023-07-29T04:05:57;23.60;69.00
17495;DHT22;8864;51.970;4.614;2023-07-29T04:08:24;23.60;69.00
17495;DHT22;8864;51.970;4.614;2023-07-29T04:10:51;23.60;69.00
17495;DHT22;8864;51.970;4.614;2023-07-29T04:13:19;23.60;69.00
17495;DHT22;8864;51.970;4.614;2023-07-29T04:15:46;23.60;69.00
17495;DHT22;8864;51.970;4.614;2023-07-29T04:18:13;23.60;69.00
17495;DHT22;8864;51.970;4.614;2023-07-29T04:20:40;23.60;69.00
17495;DHT22;8864;51.970;4.614;2023-07-29T04:23:07;23.50;69.00
17495;DHT22;8864;51.970;4.614;2023-07-29T04:25:34;23.50;69.00
17495;DHT22;8864;51.970;4.614;2023-07-29T04:28:01;23.50;69.00
17495;DHT22;8864;51.970;4.614;2023-07-29T04:30:31;23.50;69.00
17495;DHT22;8864;51.970;4.614;2023-07-29T04:32:58;23.50;69.00
17495;DHT22;8864;51.970;4.614;2023-07-29T04:35:25;23.50;69.00
17495;DHT22;8864;51.970;4.614;2023-07-29T04:37:52;23.50;69.10
17495;DHT22;8864;51.970;4.614;2023-07-29T04:40:19;23.50;69.10
17495;DHT22;8864;51.970;4.614;2023-07-29T04:42:48;23.50;69.10
17495;DHT22;8864;51.970;4.614;2023-07-29T04:45:15;23.50;69.20
17495;DHT22;8864;51.970;4.614;2023-07-29T04:47:44;23.50;69.10
17495;DHT22;8864;51.970;4.614;2023-07-29T04:50:11;23.50;69.10
17495;DHT22;8864;51.970;4.614;2023-07-29T04:52:37;23.50;69.30
17495;DHT22;8864;51.970;4.614;2023-07-29T04:55:05;23.50;69.20
17495;DHT22;8864;51.970;4.614;2023-07-29T04:57:32;23.50;69.30
17495;DHT22;8864;51.970;4.614;2023-07-29T04:59:59;23.50;69.30
17495;DHT22;8864;51.970;4.614;2023-07-29T05:02:26;23.50;69.40
17495;DHT22;8864;51.970;4.614;2023-07-29T05:04:54;23.50;70.30
17495;DHT22;8864;51.970;4.614;2023-07-29T05:07:21;23.50;69.50
17495;DHT22;8864;51.970;4.614;2023-07-29T05:09:48;23.50;69.50
17495;DHT22;8864;51.970;4.614;2023-07-29T05:12:15;23.50;69.60
17495;DHT22;8864;51.970;4.614;2023-07-29T05:14:42;23.50;69.70
17495;DHT22;8864;51.970;4.614;2023-07-29T05:17:09;23.50;69.70
17495;DHT22;8864;51.970;4.614;2023-07-29T05:19:36;23.50;69.80
17495;DHT22;8864;51.970;4.614;2023-07-29T05:22:04;23.50;69.70
17495;DHT22;8864;51.970;4.614;2023-07-29T05:24:31;23.40;69.70
17495;DHT22;8864;51.970;4.614;2023-07-29T05:26:58;23.50;69.90
17495;DHT22;8864;51.970;4.614;2023-07-29T05:29:25;23.50;69.90
17495;DHT22;8864;51.970;4.614;2023-07-29T05:31:52;23.50;69.90
17495;DHT22;8864;51.970;4.614;2023-07-29T05:34:19;23.50;69.90
17495;DHT22;8864;51.970;4.614;2023-07-29T05:36:46;23.50;69.90
17495;DHT22;8864;51.970;4.614;2023-07-29T05:39:14;23.50;69.90
17495;DHT22;8864;51.970;4.614;2023-07-29T05:41:41;23.50;69.90
17495;DHT22;8864;51.970;4.614;2023-07-29T05:44:09;23.50;70.60
17495;DHT22;8864;51.970;4.614;2023-07-29T05:46:36;23.50;69.90
17495;DHT22;8864;51.970;4.614;2023-07-29T05:49:03;23.50;69.80
17495;DHT22;8864;51.970;4.614;2023-07-29T05:51:30;23.50;70.00
17495;DHT22;8864;51.970;4.614;2023-07-29T05:53:57;23.50;69.70
17495;DHT22;8864;51.970;4.614;2023-07-29T05:56:25;23.60;69.80
17495;DHT22;8864;51.970;4.614;2023-07-29T05:58:52;23.50;69.90
17495;DHT22;8864;51.970;4.614;2023-07-29T06:01:19;23.50;69.90
17495;DHT22;8864;51.970;4.614;2023-07-29T06:03:47;23.50;70.00
17495;DHT22;8864;51.970;4.614;2023-07-29T06:06:13;23.50;69.90
17495;DHT22;8864;51.970;4.614;2023-07-29T06:08:40;23.50;70.10
17495;DHT22;8864;51.970;4.614;2023-07-29T06:11:07;23.50;70.00
17495;DHT22;8864;51.970;4.614;2023-07-29T06:13:36;23.50;70.00
17495;DHT22;8864;51.970;4.614;2023-07-29T06:16:03;23.50;70.10
17495;DHT22;8864;51.970;4.614;2023-07-29T06:18:30;23.50;70.20
17495;DHT22;8864;51.970;4.614;2023-07-29T06:20:57;23.50;70.30
17495;DHT22;8864;51.970;4.614;2023-07-29T06:23:24;23.50;70.00
17495;DHT22;8864;51.970;4.614;2023-07-29T06:25:51;23.50;70.00
17495;DHT22;8864;51.970;4.614;2023-07-29T06:28:17;23.60;70.00
17495;DHT22;8864;51.970;4.614;2023-07-29T06:30:46;23.60;69.90
17495;DHT22;8864;51.970;4.614;2023-07-29T06:33:13;23.60;70.10
17495;DHT22;8864;51.970;4.614;2023-07-29T06:35:41;23.60;70.00
17495;DHT22;8864;51.970;4.614;2023-07-29T06:38:08;23.60;69.80
17495;DHT22;8864;51.970;4.614;2023-07-29T06:40:35;23.60;70.00
17495;DHT22;8864;51.970;4.614;2023-07-29T06:43:02;23.60;70.10
17495;DHT22;8864;51.970;4.614;2023-07-29T06:45:29;23.60;70.00
17495;DHT22;8864;51.970;4.614;2023-07-29T06:47:57;23.60;69.80
17495;DHT22;8864;51.970;4.614;2023-07-29T06:50:24;23.60;69.90
17495;DHT22;8864;51.970;4.614;2023-07-29T06:52:51;23.60;69.80
17495;DHT22;8864;51.970;4.614;2023-07-29T06:55:18;23.60;69.80
17495;DHT22;8864;51.970;4.614;2023-07-29T06:57:45;23.60;69.70
17495;DHT22;8864;51.970;4.614;2023-07-29T07:00:12;23.60;69.70
17495;DHT22;8864;51.970;4.614;2023-07-29T07:02:39;23.60;69.70
17495;DHT22;8864;51.970;4.614;2023-07-29T07:05:08;23.60;69.90
17495;DHT22;8864;51.970;4.614;2023-07-29T07:07:35;23.60;69.80
17495;DHT22;8864;51.970;4.614;2023-07-29T07:10:04;23.60;69.70
17495;DHT22;8864;51.970;4.614;2023-07-29T07:12:31;23.60;69.60
17495;DHT22;8864;51.970;4.614;2023-07-29T07:14:58;23.60;69.50
17495;DHT22;8864;51.970;4.614;2023-07-29T07:17:25;23.60;69.40
17495;DHT22;8864;51.970;4.614;2023-07-29T07:19:52;23.60;69.40
17495;DHT22;8864;51.970;4.614;2023-07-29T07:22:20;23.60;69.40
17495;DHT22;8864;51.970;4.614;2023-07-29T07:24:47;23.60;69.40
17495;DHT22;8864;51.970;4.614;2023-07-29T07:27:14;23.60;69.50
17495;DHT22;8864;51.970;4.614;2023-07-29T07:29:41;23.60;69.40
17495;DHT22;8864;51.970;4.614;2023-07-29T07:32:08;23.60;69.30
17495;DHT22;8864;51.970;4.614;2023-07-29T07:34:35;23.60;69.20
17495;DHT22;8864;51.970;4.614;2023-07-29T07:37:02;23.60;69.10
17495;DHT22;8864;51.970;4.614;2023-07-29T07:39:31;23.70;69.10
17495;DHT22;8864;51.970;4.614;2023-07-29T07:41:58;23.60;69.10
17495;DHT22;8864;51.970;4.614;2023-07-29T07:44:25;23.70;69.10
17495;DHT22;8864;51.970;4.614;2023-07-29T07:46:52;23.70;69.10
17495;DHT22;8864;51.970;4.614;2023-07-29T07:49:20;23.70;69.10
17495;DHT22;8864;51.970;4.614;2023-07-29T07:51:47;23.60;69.00
17495;DHT22;8864;51.970;4.614;2023-07-29T07:54:14;23.70;69.10
17495;DHT22;8864;51.970;4.614;2023-07-29T07:56:42;23.60;69.00
17495;DHT22;8864;51.970;4.614;2023-07-29T07:59:09;23.70;69.10
17495;DHT22;8864;51.970;4.614;2023-07-29T08:01:36;23.70;69.00
17495;DHT22;8864;51.970;4.614;2023-07-29T08:04:04;23.60;68.90
17495;DHT22;8864;51.970;4.614;2023-07-29T08:06:31;23.70;69.00
17495;DHT22;8864;51.970;4.614;2023-07-29T08:08:58;23.70;69.00
17495;DHT22;8864;51.970;4.614;2023-07-29T08:11:25;23.70;68.90
17495;DHT22;8864;51.970;4.614;2023-07-29T08:13:53;23.70;68.90
17495;DHT22;8864;51.970;4.614;2023-07-29T08:16:20;23.70;68.80
17495;DHT22;8864;51.970;4.614;2023-07-29T08:18:47;23.70;68.80
17495;DHT22;8864;51.970;4.614;2023-07-29T08:21:14;23.70;68.70
17495;DHT22;8864;51.970;4.614;2023-07-29T08:23:41;23.70;68.80
17495;DHT22;8864;51.970;4.614;2023-07-29T08:26:08;23.70;68.80
17495;DHT22;8864;51.970;4.614;2023-07-29T08:28:36;23.70;68.80
17495;DHT22;8864;51.970;4.614;2023-07-29T08:31:05;23.70;68.70
17495;DHT22;8864;51.970;4.614;2023-07-29T08:33:32;23.70;68.70
17495;DHT22;8864;51.970;4.614;2023-07-29T08:36:00;23.70;68.70
17495;DHT22;8864;51.970;4.614;2023-07-29T08:38:27;23.70;68.80
17495;DHT22;8864;51.970;4.614;2023-07-29T08:40:58;23.70;68.70
17495;DHT22;8864;51.970;4.614;2023-07-29T08:43:29;23.70;68.70
17495;DHT22;8864;51.970;4.614;2023-07-29T08:45:57;23.70;68.80
17495;DHT22;8864;51.970;4.614;2023-07-29T08:48:31;23.70;68.90
17495;DHT22;8864;51.970;4.614;2023-07-29T08:51:00;23.70;69.10
17495;DHT22;8864;51.970;4.614;2023-07-29T08:53:28;23.70;69.10
17495;DHT22;8864;51.970;4.614;2023-07-29T08:55:55;23.70;70.10
17495;DHT22;8864;51.970;4.614;2023-07-29T08:58:23;23.70;69.10
17495;DHT22;8864;51.970;4.614;2023-07-29T09:00:50;23.70;69.20
17495;DHT22;8864;51.970;4.614;2023-07-29T09:03:17;23.70;69.40
17495;DHT22;8864;51.970;4.614;2023-07-29T09:05:46;23.70;70.40
17495;DHT22;8864;51.970;4.614;2023-07-29T09:08:14;23.70;69.60
17495;DHT22;8864;51.970;4.614;2023-07-29T09:10:41;23.70;69.40
17495;DHT22;8864;51.970;4.614;2023-07-29T09:13:08;23.70;69.20
17495;DHT22;8864;51.970;4.614;2023-07-29T09:15:36;23.70;69.10
17495;DHT22;8864;51.970;4.614;2023-07-29T09:18:10;23.70;69.10
17495;DHT22;8864;51.970;4.614;2023-07-29T09:20:37;23.70;69.40
17495;DHT22;8864;51.970;4.614;2023-07-29T09:23:08;23.70;69.30
17495;DHT22;8864;51.970;4.614;2023-07-29T09:25:37;23.70;69.30
17495;DHT22;8864;51.970;4.614;2023-07-29T09:28:08;23.70;69.40
17495;DHT22;8864;51.970;4.614;2023-07-29T09:30:35;23.70;69.80
17495;DHT22;8864;51.970;4.614;2023-07-29T09:33:02;23.70;69.90
17495;DHT22;8864;51.970;4.614;2023-07-29T09:35:32;23.70;70.10
17495;DHT22;8864;51.970;4.614;2023-07-29T09:37:59;23.70;70.20
17495;DHT22;8864;51.970;4.614;2023-07-29T09:40:34;23.70;70.30
17495;DHT22;8864;51.970;4.614;2023-07-29T09:43:01;23.70;70.50
17495;DHT22;8864;51.970;4.614;2023-07-29T09:45:28;23.70;70.60
17495;DHT22;8864;51.970;4.614;2023-07-29T09:47:57;23.70;70.70
17495;DHT22;8864;51.970;4.614;2023-07-29T09:50:24;23.70;70.80
17495;DHT22;8864;51.970;4.614;2023-07-29T09:52:52;23.70;71.00
17495;DHT22;8864;51.970;4.614;2023-07-29T09:55:21;23.70;71.10
17495;DHT22;8864;51.970;4.614;2023-07-29T09:57:53;23.70;71.00
17495;DHT22;8864;51.970;4.614;2023-07-29T10:00:21;23.80;71.10
17495;DHT22;8864;51.970;4.614;2023-07-29T10:02:48;23.80;71.10
17495;DHT22;8864;51.970;4.614;2023-07-29T10:05:15;23.80;71.10
17495;DHT22;8864;51.970;4.614;2023-07-29T10:07:42;23.80;71.10
17495;DHT22;8864;51.970;4.614;2023-07-29T10:10:11;23.80;71.10
17495;DHT22;8864;51.970;4.614;2023-07-29T10:12:39;23.80;71.10
17495;DHT22;8864;51.970;4.614;2023-07-29T10:15:10;23.70;71.10
17495;DHT22;8864;51.970;4.614;2023-07-29T10:17:38;23.80;71.10
17495;DHT22;8864;51.970;4.614;2023-07-29T10:20:06;23.70;71.70
17495;DHT22;8864;51.970;4.614;2023-07-29T10:22:36;23.70;70.80
17495;DHT22;8864;51.970;4.614;2023-07-29T10:25:05;23.80;70.70
17495;DHT22;8864;51.970;4.614;2023-07-29T10:27:41;23.80;70.60
17495;DHT22;8864;51.970;4.614;2023-07-29T10:30:11;23.80;70.50
17495;DHT22;8864;51.970;4.614;2023-07-29T10:32:41;23.70;70.50
17495;DHT22;8864;51.970;4.614;2023-07-29T10:35:09;23.80;70.50
17495;DHT22;8864;51.970;4.614;2023-07-29T10:37:36;23.80;70.40
17495;DHT22;8864;51.970;4.614;2023-07-29T10:40:07;23.70;70.30
17495;DHT22;8864;51.970;4.614;2023-07-29T10:42:35;23.70;70.30
17495;DHT22;8864;51.970;4.614;2023-07-29T10:47:55;23.70;70.30
17495;DHT22;8864;51.970;4.614;2023-07-29T10:50:22;23.70;70.40
17495;DHT22;8864;51.970;4.614;2023-07-29T10:52:50;23.70;70.50
17495;DHT22;8864;51.970;4.614;2023-07-29T10:55:26;23.70;70.60
17495;DHT22;8864;51.970;4.614;2023-07-29T10:58:05;23.70;70.60
17495;DHT22;8864;51.970;4.614;2023-07-29T11:00:32;23.70;70.60
17495;DHT22;8864;51.970;4.614;2023-07-29T11:03:03;23.70;70.60
17495;DHT22;8864;51.970;4.614;2023-07-29T11:05:45;23.70;70.50
17495;DHT22;8864;51.970;4.614;2023-07-29T11:08:17;23.70;70.40
17495;DHT22;8864;51.970;4.614;2023-07-29T11:10:58;23.70;70.30
17495;DHT22;8864;51.970;4.614;2023-07-29T11:13:26;23.70;70.20
17495;DHT22;8864;51.970;4.614;2023-07-29T11:15:54;23.80;71.00
17495;DHT22;8864;51.970;4.614;2023-07-29T11:18:27;23.70;70.10
17495;DHT22;8864;51.970;4.614;2023-07-29T11:20:54;23.80;70.20
17495;DHT22;8864;51.970;4.614;2023-07-29T11:23:27;23.80;70.20
17495;DHT22;8864;51.970;4.614;2023-07-29T11:25:55;23.70;70.00
17495;DHT22;8864;51.970;4.614;2023-07-29T11:28:22;23.80;70.00
17495;DHT22;8864;51.970;4.614;2023-07-29T11:30:50;23.80;70.00
17495;DHT22;8864;51.970;4.614;2023-07-29T11:33:18;23.80;69.90
17495;DHT22;8864;51.970;4.614;2023-07-29T11:35:47;23.80;69.90
17495;DHT22;8864;51.970;4.614;2023-07-29T11:38:18;23.80;69.90
17495;DHT22;8864;51.970;4.614;2023-07-29T11:40:54;23.80;69.70
17495;DHT22;8864;51.970;4.614;2023-07-29T11:43:21;23.80;69.70
17495;DHT22;8864;51.970;4.614;2023-07-29T11:45:48;23.80;69.80
17495;DHT22;8864;51.970;4.614;2023-07-29T11:48:15;23.80;69.90
17495;DHT22;8864;51.970;4.614;2023-07-29T11:50:42;23.80;70.00
17495;DHT22;8864;51.970;4.614;2023-07-29T11:53:11;23.80;70.00
17495;DHT22;8864;51.970;4.614;2023-07-29T11:55:39;23.80;70.20
17495;DHT22;8864;51.970;4.614;2023-07-29T11:58:05;23.80;70.30
17495;DHT22;8864;51.970;4.614;2023-07-29T12:00:33;23.80;71.40
17495;DHT22;8864;51.970;4.614;2023-07-29T12:03:00;23.80;70.70
17495;DHT22;8864;51.970;4.614;2023-07-29T12:05:28;23.90;70.60
17495;DHT22;8864;51.970;4.614;2023-07-29T12:07:55;23.90;70.50
17495;DHT22;8864;51.970;4.614;2023-07-29T12:10:25;23.90;70.40
17495;DHT22;8864;51.970;4.614;2023-07-29T12:12:52;23.90;70.20
17495;DHT22;8864;51.970;4.614;2023-07-29T12:15:26;23.90;70.20
17495;DHT22;8864;51.970;4.614;2023-07-29T12:17:54;23.90;70.10
17495;DHT22;8864;51.970;4.614;2023-07-29T12:20:24;23.90;70.00
17495;DHT22;8864;51.970;4.614;2023-07-29T12:22:53;23.90;69.90
17495;DHT22;8864;51.970;4.614;2023-07-29T12:25:20;24.00;69.80
17495;DHT22;8864;51.970;4.614;2023-07-29T12:27:48;24.00;69.70
17495;DHT22;8864;51.970;4.614;2023-07-29T12:30:15;24.00;69.70
17495;DHT22;8864;51.970;4.614;2023-07-29T12:32:44;24.00;69.60
17495;DHT22;8864;51.970;4.614;2023-07-29T12:35:11;24.00;69.40
17495;DHT22;8864;51.970;4.614;2023-07-29T12:37:38;24.00;69.30
17495;DHT22;8864;51.970;4.614;2023-07-29T12:40:19;24.00;69.30
17495;DHT22;8864;51.970;4.614;2023-07-29T12:42:48;24.00;69.20
17495;DHT22;8864;51.970;4.614;2023-07-29T12:45:16;24.00;69.10
17495;DHT22;8864;51.970;4.614;2023-07-29T12:47:43;24.00;69.10
17495;DHT22;8864;51.970;4.614;2023-07-29T12:50:10;24.00;69.10
17495;DHT22;8864;51.970;4.614;2023-07-29T12:52:37;24.00;69.10
17495;DHT22;8864;51.970;4.614;2023-07-29T12:55:05;24.10;69.00
17495;DHT22;8864;51.970;4.614;2023-07-29T12:57:34;24.10;68.90
17495;DHT22;8864;51.970;4.614;2023-07-29T13:00:03;24.10;68.90
17495;DHT22;8864;51.970;4.614;2023-07-29T13:02:31;24.10;68.80
17495;DHT22;8864;51.970;4.614;2023-07-29T13:04:58;24.10;68.70
17495;DHT22;8864;51.970;4.614;2023-07-29T13:07:25;24.10;68.60
17495;DHT22;8864;51.970;4.614;2023-07-29T13:09:52;24.10;68.60
17495;DHT22;8864;51.970;4.614;2023-07-29T13:12:19;24.10;68.60
17495;DHT22;8864;51.970;4.614;2023-07-29T13:14:46;24.10;68.50
17495;DHT22;8864;51.970;4.614;2023-07-29T13:17:15;24.20;68.50
17495;DHT22;8864;51.970;4.614;2023-07-29T13:19:42;24.10;68.30
17495;DHT22;8864;51.970;4.614;2023-07-29T13:22:09;24.20;68.40
17495;DHT22;8864;51.970;4.614;2023-07-29T13:24:36;24.20;68.30
17495;DHT22;8864;51.970;4.614;2023-07-29T13:27:03;24.20;68.30
17495;DHT22;8864;51.970;4.614;2023-07-29T13:29:30;24.20;68.20
17495;DHT22;8864;51.970;4.614;2023-07-29T13:31:57;24.20;68.20
17495;DHT22;8864;51.970;4.614;2023-07-29T13:34:25;24.20;68.10
17495;DHT22;8864;51.970;4.614;2023-07-29T13:36:53;24.30;68.10
17495;DHT22;8864;51.970;4.614;2023-07-29T13:39:20;24.30;68.10
17495;DHT22;8864;51.970;4.614;2023-07-29T13:41:47;24.20;68.00
17495;DHT22;8864;51.970;4.614;2023-07-29T13:44:14;24.30;68.00
17495;DHT22;8864;51.970;4.614;2023-07-29T13:46:40;24.30;68.00
17495;DHT22;8864;51.970;4.614;2023-07-29T13:49:07;24.30;67.90
17495;DHT22;8864;51.970;4.614;2023-07-29T13:51:35;24.30;67.90
17495;DHT22;8864;51.970;4.614;2023-07-29T13:54:02;24.30;67.90
17495;DHT22;8864;51.970;4.614;2023-07-29T13:56:29;24.20;67.80
17495;DHT22;8864;51.970;4.614;2023-07-29T13:58:56;24.30;67.90
17495;DHT22;8864;51.970;4.614;2023-07-29T14:01:23;24.30;67.80
17495;DHT22;8864;51.970;4.614;2023-07-29T14:03:50;24.30;67.70
17495;DHT22;8864;51.970;4.614;2023-07-29T14:06:17;24.30;67.80
17495;DHT22;8864;51.970;4.614;2023-07-29T14:08:46;24.30;67.90
17495;DHT22;8864;51.970;4.614;2023-07-29T14:11:12;24.30;67.70
17495;DHT22;8864;51.970;4.614;2023-07-29T14:13:40;24.30;67.70
17495;DHT22;8864;51.970;4.614;2023-07-29T14:16:06;24.30;67.60
17495;DHT22;8864;51.970;4.614;2023-07-29T14:18:33;24.30;67.60
17495;DHT22;8864;51.970;4.614;2023-07-29T14:21:00;24.30;67.50
17495;DHT22;8864;51.970;4.614;2023-07-29T14:23:27;24.30;67.50
17495;DHT22;8864;51.970;4.614;2023-07-29T14:25:57;24.30;67.50
17495;DHT22;8864;51.970;4.614;2023-07-29T14:28:24;24.30;67.40
17495;DHT22;8864;51.970;4.614;2023-07-29T14:30:51;24.40;67.40
17495;DHT22;8864;51.970;4.614;2023-07-29T14:33:17;24.20;67.30
17495;DHT22;8864;51.970;4.614;2023-07-29T14:35:44;24.40;67.40
17495;DHT22;8864;51.970;4.614;2023-07-29T14:38:11;24.40;67.40
17495;DHT22;8864;51.970;4.614;2023-07-29T14:40:38;24.30;67.40
17495;DHT22;8864;51.970;4.614;2023-07-29T14:43:06;24.30;67.40
17495;DHT22;8864;51.970;4.614;2023-07-29T14:45:33;24.30;67.40
17495;DHT22;8864;51.970;4.614;2023-07-29T14:48:00;24.30;67.40
17495;DHT22;8864;51.970;4.614;2023-07-29T14:50:28;24.40;67.40
17495;DHT22;8864;51.970;4.614;2023-07-29T14:52:55;24.30;67.30
17495;DHT22;8864;51.970;4.614;2023-07-29T14:55:22;24.30;67.30
17495;DHT22;8864;51.970;4.614;2023-07-29T14:57:49;24.40;67.40
17495;DHT22;8864;51.970;4.614;2023-07-29T15:00:17;24.40;67.40
17495;DHT22;8864;51.970;4.614;2023-07-29T15:02:44;24.40;67.30
17495;DHT22;8864;51.970;4.614;2023-07-29T15:05:11;24.30;67.30
17495;DHT22;8864;51.970;4.614;2023-07-29T15:07:38;24.30;67.30
17495;DHT22;8864;51.970;4.614;2023-07-29T15:10:05;24.30;67.30
17495;DHT22;8864;51.970;4.614;2023-07-29T15:12:33;24.30;67.20
17495;DHT22;8864;51.970;4.614;2023-07-29T15:15:00;24.40;67.30
17495;DHT22;8864;51.970;4.614;2023-07-29T15:17:28;24.40;67.30
17495;DHT22;8864;51.970;4.614;2023-07-29T15:19:55;24.30;67.20
17495;DHT22;8864;51.970;4.614;2023-07-29T15:22:22;24.40;67.20
17495;DHT22;8864;51.970;4.614;2023-07-29T15:24:49;24.40;67.10
17495;DHT22;8864;51.970;4.614;2023-07-29T15:27:16;24.40;67.10
17495;DHT22;8864;51.970;4.614;2023-07-29T15:29:44;24.40;67.10
17495;DHT22;8864;51.970;4.614;2023-07-29T15:32:11;24.40;67.10
17495;DHT22;8864;51.970;4.614;2023-07-29T15:34:39;24.40;67.00
17495;DHT22;8864;51.970;4.614;2023-07-29T15:37:06;24.40;67.00
17495;DHT22;8864;51.970;4.614;2023-07-29T15:39:33;24.40;67.00
17495;DHT22;8864;51.970;4.614;2023-07-29T15:42:00;24.40;66.90
17495;DHT22;8864;51.970;4.614;2023-07-29T15:44:27;24.40;66.90
17495;DHT22;8864;51.970;4.614;2023-07-29T15:46:54;24.40;66.80
17495;DHT22;8864;51.970;4.614;2023-07-29T15:49:22;24.50;67.00
17495;DHT22;8864;51.970;4.614;2023-07-29T15:51:52;24.40;66.80